sensor_id;sensor_type;location;lat;lon;timestamp;P1;durP1;ratioP1;P2;durP2;ratioP2
81176;SDS011;74095;48.270;14.200;2024-01-15T00:02:12;46.38;;;19.20;;
81176;SDS011;74095;48.270;14.200;2024-01-15T00:04:38;41.72;;;17.45;;
81176;SDS011;74095;48.270;14.200;2024-01-15T00:07:05;43.78;;;17.40;;
81176;SDS011;74095;48.270;14.200;2024-01-15T00:09:31;25.25;;;10.18;;
81176;SDS011;74095;48.270;14.200;2024-01-15T00:11:58;43.33;;;16.95;;
81176;SDS011;74095;48.270;14.200;2024-01-15T00:14:25;46.08;;;18.80;;
81176;SDS011;74095;48.270;14.200;2024-01-15T00:16:51;42.70;;;18.50;;
81176;SDS011;74095;48.270;14.200;2024-01-15T00:19:17;43.42;;;17.90;;
81176;SDS011;74095;48.270;14.200;2024-01-15T00:21:44;43.22;;;18.00;;
81176;SDS011;74095;48.270;14.200;2024-01-15T00:24:10;41.83;;;17.63;;
81176;SDS011;74095;48.270;14.200;2024-01-15T00:26:36;40.55;;;17.77;;
81176;SDS011;74095;48.270;14.200;2024-01-15T00:29:02;32.95;;;15.45;;
81176;SDS011;74095;48.270;14.200;2024-01-15T00:31:29;38.13;;;14.55;;
81176;SDS011;74095;48.270;14.200;2024-01-15T00:33:57;40.30;;;16.70;;
81176;SDS011;74095;48.270;14.200;2024-01-15T00:36:23;47.97;;;17.88;;
81176;SDS011;74095;48.270;14.200;2024-01-15T00:38:49;43.25;;;16.98;;
81176;SDS011;74095;48.270;14.200;2024-01-15T00:41:15;41.17;;;16.48;;
81176;SDS011;74095;48.270;14.200;2024-01-15T00:43:41;49.58;;;18.23;;
81176;SDS011;74095;48.270;14.200;2024-01-15T00:46:07;49.28;;;16.50;;
81176;SDS011;74095;48.270;14.200;2024-01-15T00:48:33;44.15;;;17.17;;
81176;SDS011;74095;48.270;14.200;2024-01-15T00:50:59;46.65;;;18.50;;
81176;SDS011;74095;48.270;14.200;2024-01-15T00:53:25;56.35;;;19.83;;
81176;SDS011;74095;48.270;14.200;2024-01-15T00:55:51;45.08;;;18.38;;
81176;SDS011;74095;48.270;14.200;2024-01-15T00:58:17;44.00;;;17.15;;
81176;SDS011;74095;48.270;14.200;2024-01-15T01:00:44;41.83;;;18.00;;
81176;SDS011;74095;48.270;14.200;2024-01-15T01:03:09;41.75;;;16.25;;
81176;SDS011;74095;48.270;14.200;2024-01-15T01:05:35;41.75;;;16.88;;
81176;SDS011;74095;48.270;14.200;2024-01-15T01:08:01;41.95;;;15.93;;
81176;SDS011;74095;48.270;14.200;2024-01-15T01:10:27;38.33;;;16.42;;
81176;SDS011;74095;48.270;14.200;2024-01-15T01:12:53;43.97;;;17.08;;
81176;SDS011;74095;48.270;14.200;2024-01-15T01:15:19;48.40;;;18.15;;
81176;SDS011;74095;48.270;14.200;2024-01-15T01:17:45;41.38;;;16.15;;
81176;SDS011;74095;48.270;14.200;2024-01-15T01:20:12;41.65;;;16.15;;
81176;SDS011;74095;48.270;14.200;2024-01-15T01:22:38;38.72;;;15.75;;
81176;SDS011;74095;48.270;14.200;2024-01-15T01:25:05;48.70;;;17.75;;
81176;SDS011;74095;48.270;14.200;2024-01-15T01:27:31;43.20;;;16.55;;
81176;SDS011;74095;48.270;14.200;2024-01-15T01:29:57;39.55;;;15.95;;
81176;SDS011;74095;48.270;14.200;2024-01-15T01:32:23;39.95;;;16.30;;
81176;SDS011;74095;48.270;14.200;2024-01-15T01:34:49;39.75;;;16.15;;
81176;SDS011;74095;48.270;14.200;2024-01-15T01:37:15;40.05;;;15.68;;
81176;SDS011;74095;48.270;14.200;2024-01-15T01:39:41;38.42;;;15.55;;
81176;SDS011;74095;48.270;14.200;2024-01-15T01:42:08;50.08;;;18.77;;
81176;SDS011;74095;48.270;14.200;2024-01-15T01:44:34;43.22;;;18.00;;
81176;SDS011;74095;48.270;14.200;2024-01-15T01:47:00;47.22;;;18.95;;
81176;SDS011;74095;48.270;14.200;2024-01-15T01:49:27;51.47;;;19.65;;
81176;SDS011;74095;48.270;14.200;2024-01-15T01:51:57;45.83;;;18.10;;
81176;SDS011;74095;48.270;14.200;2024-01-15T01:54:24;46.55;;;17.70;;
81176;SDS011;74095;48.270;14.200;2024-01-15T01:56:54;52.13;;;18.77;;
81176;SDS011;74095;48.270;14.200;2024-01-15T01:59:22;44.67;;;18.90;;
81176;SDS011;74095;48.270;14.200;2024-01-15T02:01:49;52.80;;;18.38;;
81176;SDS011;74095;48.270;14.200;2024-01-15T02:04:16;48.13;;;18.17;;
81176;SDS011;74095;48.270;14.200;2024-01-15T02:06:42;49.20;;;18.10;;
81176;SDS011;74095;48.270;14.200;2024-01-15T02:09:08;38.90;;;15.50;;
81176;SDS011;74095;48.270;14.200;2024-01-15T02:11:35;32.78;;;12.35;;
81176;SDS011;74095;48.270;14.200;2024-01-15T02:14:02;30.80;;;11.50;;
81176;SDS011;74095;48.270;14.200;2024-01-15T02:16:28;31.65;;;11.57;;
81176;SDS011;74095;48.270;14.200;2024-01-15T02:18:54;15.02;;;6.88;;
81176;SDS011;74095;48.270;14.200;2024-01-15T02:21:20;36.90;;;14.50;;
81176;SDS011;74095;48.270;14.200;2024-01-15T02:23:46;37.25;;;15.63;;
81176;SDS011;74095;48.270;14.200;2024-01-15T02:26:12;39.25;;;14.82;;
81176;SDS011;74095;48.270;14.200;2024-01-15T02:28:39;37.70;;;15.40;;
81176;SDS011;74095;48.270;14.200;2024-01-15T02:31:07;45.90;;;17.33;;
81176;SDS011;74095;48.270;14.200;2024-01-15T02:33:32;44.35;;;17.05;;
81176;SDS011;74095;48.270;14.200;2024-01-15T02:35:58;47.17;;;18.45;;
81176;SDS011;74095;48.270;14.200;2024-01-15T02:38:24;42.42;;;16.63;;
81176;SDS011;74095;48.270;14.200;2024-01-15T02:40:50;50.97;;;17.13;;
81176;SDS011;74095;48.270;14.200;2024-01-15T02:43:16;17.90;;;8.40;;
81176;SDS011;74095;48.270;14.200;2024-01-15T02:45:44;43.92;;;16.60;;
81176;SDS011;74095;48.270;14.200;2024-01-15T02:48:12;53.75;;;17.50;;
81176;SDS011;74095;48.270;14.200;2024-01-15T02:50:38;52.58;;;19.50;;
81176;SDS011;74095;48.270;14.200;2024-01-15T02:53:04;57.80;;;18.27;;
81176;SDS011;74095;48.270;14.200;2024-01-15T02:55:30;66.07;;;21.48;;
81176;SDS011;74095;48.270;14.200;2024-01-15T02:57:56;52.85;;;19.45;;
81176;SDS011;74095;48.270;14.200;2024-01-15T03:00:22;43.95;;;16.25;;
81176;SDS011;74095;48.270;14.200;2024-01-15T03:02:49;46.88;;;16.73;;
81176;SDS011;74095;48.270;14.200;2024-01-15T03:05:16;53.72;;;20.13;;
81176;SDS011;74095;48.270;14.200;2024-01-15T03:07:42;49.55;;;18.33;;
81176;SDS011;74095;48.270;14.200;2024-01-15T03:10:09;62.85;;;22.20;;
81176;SDS011;74095;48.270;14.200;2024-01-15T03:12:35;52.35;;;21.80;;
81176;SDS011;74095;48.270;14.200;2024-01-15T03:15:01;57.15;;;22.17;;
81176;SDS011;74095;48.270;14.200;2024-01-15T03:17:28;40.85;;;16.17;;
81176;SDS011;74095;48.270;14.200;2024-01-15T03:19:54;42.58;;;16.65;;
81176;SDS011;74095;48.270;14.200;2024-01-15T03:22:20;47.67;;;18.15;;
81176;SDS011;74095;48.270;14.200;2024-01-15T03:24:46;61.05;;;21.63;;
81176;SDS011;74095;48.270;14.200;2024-01-15T03:27:12;49.50;;;18.05;;
81176;SDS011;74095;48.270;14.200;2024-01-15T03:29:39;52.92;;;19.65;;
81176;SDS011;74095;48.270;14.200;2024-01-15T03:32:05;57.53;;;22.20;;
81176;SDS011;74095;48.270;14.200;2024-01-15T03:34:31;56.28;;;20.65;;
81176;SDS011;74095;48.270;14.200;2024-01-15T03:36:57;56.40;;;20.23;;
81176;SDS011;74095;48.270;14.200;2024-01-15T03:39:24;50.08;;;20.80;;
81176;SDS011;74095;48.270;14.200;2024-01-15T03:41:50;47.28;;;19.38;;
81176;SDS011;74095;48.270;14.200;2024-01-15T03:44:16;50.92;;;18.95;;
81176;SDS011;74095;48.270;14.200;2024-01-15T03:46:42;46.08;;;17.65;;
81176;SDS011;74095;48.270;14.200;2024-01-15T03:49:09;51.15;;;20.08;;
81176;SDS011;74095;48.270;14.200;2024-01-15T03:51:35;46.53;;;15.90;;
81176;SDS011;74095;48.270;14.200;2024-01-15T03:54:01;43.92;;;16.38;;
81176;SDS011;74095;48.270;14.200;2024-01-15T03:56:27;45.20;;;17.45;;
81176;SDS011;74095;48.270;14.200;2024-01-15T03:58:53;45.42;;;17.25;;
81176;SDS011;74095;48.270;14.200;2024-01-15T04:01:19;38.75;;;16.25;;
81176;SDS011;74095;48.270;14.200;2024-01-15T04:03:45;41.40;;;17.33;;
81176;SDS011;74095;48.270;14.200;2024-01-15T04:06:11;36.88;;;16.85;;
81176;SDS011;74095;48.270;14.200;2024-01-15T04:08:37;41.90;;;16.90;;
81176;SDS011;74095;48.270;14.200;2024-01-15T04:11:03;38.88;;;15.88;;
81176;SDS011;74095;48.270;14.200;2024-01-15T04:13:32;42.50;;;17.45;;
81176;SDS011;74095;48.270;14.200;2024-01-15T04:15:58;39.97;;;15.63;;
81176;SDS011;74095;48.270;14.200;2024-01-15T04:18:26;38.33;;;15.32;;
81176;SDS011;74095;48.270;14.200;2024-01-15T04:20:51;38.03;;;16.67;;
81176;SDS011;74095;48.270;14.200;2024-01-15T04:23:17;38.72;;;16.75;;
81176;SDS011;74095;48.270;14.200;2024-01-15T04:25:43;36.67;;;16.20;;
81176;SDS011;74095;48.270;14.200;2024-01-15T04:28:10;56.55;;;22.83;;
81176;SDS011;74095;48.270;14.200;2024-01-15T04:30:36;65.70;;;23.70;;
81176;SDS011;74095;48.270;14.200;2024-01-15T04:33:02;44.08;;;20.30;;
81176;SDS011;74095;48.270;14.200;2024-01-15T04:35:28;38.55;;;17.25;;
81176;SDS011;74095;48.270;14.200;2024-01-15T04:37:54;42.55;;;17.25;;
81176;SDS011;74095;48.270;14.200;2024-01-15T04:40:20;46.67;;;18.85;;
81176;SDS011;74095;48.270;14.200;2024-01-15T04:42:46;42.03;;;18.23;;
81176;SDS011;74095;48.270;14.200;2024-01-15T04:45:11;42.83;;;17.52;;
81176;SDS011;74095;48.270;14.200;2024-01-15T04:47:37;38.83;;;16.95;;
81176;SDS011;74095;48.270;14.200;2024-01-15T04:50:04;37.28;;;16.30;;
81176;SDS011;74095;48.270;14.200;2024-01-15T04:52:30;36.80;;;16.33;;
81176;SDS011;74095;48.270;14.200;2024-01-15T04:54:56;37.65;;;16.77;;
81176;SDS011;74095;48.270;14.200;2024-01-15T04:57:22;41.83;;;16.15;;
81176;SDS011;74095;48.270;14.200;2024-01-15T04:59:48;35.35;;;16.05;;
81176;SDS011;74095;48.270;14.200;2024-01-15T05:02:14;36.38;;;16.17;;
81176;SDS011;74095;48.270;14.200;2024-01-15T05:04:40;38.78;;;16.35;;
81176;SDS011;74095;48.270;14.200;2024-01-15T05:07:06;32.10;;;15.88;;
81176;SDS011;74095;48.270;14.200;2024-01-15T05:09:32;34.70;;;15.52;;
81176;SDS011;74095;48.270;14.200;2024-01-15T05:11:58;33.63;;;14.45;;
81176;SDS011;74095;48.270;14.200;2024-01-15T05:14:24;36.60;;;15.23;;
81176;SDS011;74095;48.270;14.200;2024-01-15T05:16:50;33.40;;;14.23;;
81176;SDS011;74095;48.270;14.200;2024-01-15T05:19:16;37.05;;;15.88;;
81176;SDS011;74095;48.270;14.200;2024-01-15T05:21:42;36.97;;;15.15;;
81176;SDS011;74095;48.270;14.200;2024-01-15T05:24:08;34.72;;;15.05;;
81176;SDS011;74095;48.270;14.200;2024-01-15T05:26:34;35.08;;;15.43;;
81176;SDS011;74095;48.270;14.200;2024-01-15T05:29:00;31.90;;;15.75;;
81176;SDS011;74095;48.270;14.200;2024-01-15T05:31:26;37.38;;;15.65;;
81176;SDS011;74095;48.270;14.200;2024-01-15T05:33:52;30.67;;;13.52;;
81176;SDS011;74095;48.270;14.200;2024-01-15T05:36:18;35.42;;;15.43;;
81176;SDS011;74095;48.270;14.200;2024-01-15T05:38:44;32.38;;;14.45;;
81176;SDS011;74095;48.270;14.200;2024-01-15T05:41:10;33.53;;;15.13;;
81176;SDS011;74095;48.270;14.200;2024-01-15T05:43:36;35.13;;;14.15;;
81176;SDS011;74095;48.270;14.200;2024-01-15T05:46:02;33.03;;;15.25;;
81176;SDS011;74095;48.270;14.200;2024-01-15T05:48:28;37.20;;;16.17;;
81176;SDS011;74095;48.270;14.200;2024-01-15T05:50:54;34.08;;;13.88;;
81176;SDS011;74095;48.270;14.200;2024-01-15T05:53:20;33.15;;;14.85;;
81176;SDS011;74095;48.270;14.200;2024-01-15T05:55:46;37.15;;;15.02;;
81176;SDS011;74095;48.270;14.200;2024-01-15T05:58:12;34.38;;;14.80;;
81176;SDS011;74095;48.270;14.200;2024-01-15T06:00:38;33.83;;;14.93;;
81176;SDS011;74095;48.270;14.200;2024-01-15T06:03:04;30.60;;;13.82;;
81176;SDS011;74095;48.270;14.200;2024-01-15T06:05:30;32.88;;;14.35;;
81176;SDS011;74095;48.270;14.200;2024-01-15T06:07:56;35.17;;;15.68;;
81176;SDS011;74095;48.270;14.200;2024-01-15T06:10:22;33.25;;;14.93;;
81176;SDS011;74095;48.270;14.200;2024-01-15T06:12:48;34.47;;;15.32;;
81176;SDS011;74095;48.270;14.200;2024-01-15T06:15:13;31.25;;;14.82;;
81176;SDS011;74095;48.270;14.200;2024-01-15T06:17:39;35.25;;;15.00;;
81176;SDS011;74095;48.270;14.200;2024-01-15T06:20:05;39.00;;;15.90;;
81176;SDS011;74095;48.270;14.200;2024-01-15T06:22:32;37.85;;;16.10;;
81176;SDS011;74095;48.270;14.200;2024-01-15T06:24:58;39.72;;;16.40;;
81176;SDS011;74095;48.270;14.200;2024-01-15T06:27:24;39.28;;;16.38;;
81176;SDS011;74095;48.270;14.200;2024-01-15T06:29:50;33.63;;;15.35;;
81176;SDS011;74095;48.270;14.200;2024-01-15T06:32:16;32.63;;;13.70;;
81176;SDS011;74095;48.270;14.200;2024-01-15T06:34:41;39.78;;;15.02;;
81176;SDS011;74095;48.270;14.200;2024-01-15T06:37:07;34.88;;;15.73;;
81176;SDS011;74095;48.270;14.200;2024-01-15T06:39:34;30.02;;;14.35;;
81176;SDS011;74095;48.270;14.200;2024-01-15T06:42:00;36.60;;;14.77;;
81176;SDS011;74095;48.270;14.200;2024-01-15T06:44:26;29.58;;;13.15;;
81176;SDS011;74095;48.270;14.200;2024-01-15T06:46:52;36.97;;;16.13;;
81176;SDS011;74095;48.270;14.200;2024-01-15T06:49:18;32.55;;;14.55;;
81176;SDS011;74095;48.270;14.200;2024-01-15T06:51:44;31.33;;;14.65;;
81176;SDS011;74095;48.270;14.200;2024-01-15T06:54:10;32.58;;;14.60;;
81176;SDS011;74095;48.270;14.200;2024-01-15T06:56:36;29.50;;;13.95;;
81176;SDS011;74095;48.270;14.200;2024-01-15T06:59:02;29.92;;;14.20;;
81176;SDS011;74095;48.270;14.200;2024-01-15T07:01:28;30.27;;;13.07;;
81176;SDS011;74095;48.270;14.200;2024-01-15T07:03:54;30.55;;;13.57;;
81176;SDS011;74095;48.270;14.200;2024-01-15T07:06:20;28.40;;;13.32;;
81176;SDS011;74095;48.270;14.200;2024-01-15T07:08:46;27.33;;;12.52;;
81176;SDS011;74095;48.270;14.200;2024-01-15T07:11:12;28.55;;;12.98;;
81176;SDS011;74095;48.270;14.200;2024-01-15T07:13:38;30.65;;;13.73;;
81176;SDS011;74095;48.270;14.200;2024-01-15T07:16:04;28.92;;;12.65;;
81176;SDS011;74095;48.270;14.200;2024-01-15T07:18:30;26.42;;;13.23;;
81176;SDS011;74095;48.270;14.200;2024-01-15T07:20:56;28.85;;;12.98;;
81176;SDS011;74095;48.270;14.200;2024-01-15T07:23:22;25.63;;;12.38;;
81176;SDS011;74095;48.270;14.200;2024-01-15T07:25:48;28.25;;;14.57;;
81176;SDS011;74095;48.270;14.200;2024-01-15T07:28:14;28.73;;;14.20;;
81176;SDS011;74095;48.270;14.200;2024-01-15T07:30:40;28.00;;;13.15;;
81176;SDS011;74095;48.270;14.200;2024-01-15T07:33:05;26.92;;;13.77;;
81176;SDS011;74095;48.270;14.200;2024-01-15T07:35:31;29.60;;;14.07;;
81176;SDS011;74095;48.270;14.200;2024-01-15T07:37:57;27.98;;;13.93;;
81176;SDS011;74095;48.270;14.200;2024-01-15T07:40:23;26.80;;;12.60;;
81176;SDS011;74095;48.270;14.200;2024-01-15T07:42:50;31.38;;;12.75;;
81176;SDS011;74095;48.270;14.200;2024-01-15T07:45:17;27.95;;;12.90;;
81176;SDS011;74095;48.270;14.200;2024-01-15T07:47:43;27.02;;;11.88;;
81176;SDS011;74095;48.270;14.200;2024-01-15T07:50:09;25.95;;;11.20;;
81176;SDS011;74095;48.270;14.200;2024-01-15T07:52:36;28.95;;;12.80;;
81176;SDS011;74095;48.270;14.200;2024-01-15T07:55:02;23.98;;;11.68;;
81176;SDS011;74095;48.270;14.200;2024-01-15T07:57:31;25.05;;;11.57;;
81176;SDS011;74095;48.270;14.200;2024-01-15T07:59:57;27.85;;;12.50;;
81176;SDS011;74095;48.270;14.200;2024-01-15T08:02:23;26.58;;;12.60;;
81176;SDS011;74095;48.270;14.200;2024-01-15T08:04:49;28.83;;;12.52;;
81176;SDS011;74095;48.270;14.200;2024-01-15T08:07:15;27.38;;;12.70;;
81176;SDS011;74095;48.270;14.200;2024-01-15T08:09:41;25.85;;;12.57;;
81176;SDS011;74095;48.270;14.200;2024-01-15T08:12:07;27.17;;;13.10;;
81176;SDS011;74095;48.270;14.200;2024-01-15T08:14:33;25.48;;;13.35;;
81176;SDS011;74095;48.270;14.200;2024-01-15T08:16:59;30.38;;;13.65;;
81176;SDS011;74095;48.270;14.200;2024-01-15T08:19:25;30.23;;;13.07;;
81176;SDS011;74095;48.270;14.200;2024-01-15T08:21:51;29.58;;;13.45;;
81176;SDS011;74095;48.270;14.200;2024-01-15T08:24:17;29.27;;;12.80;;
81176;SDS011;74095;48.270;14.200;2024-01-15T08:26:43;30.80;;;13.48;;
81176;SDS011;74095;48.270;14.200;2024-01-15T08:29:09;29.73;;;13.50;;
81176;SDS011;74095;48.270;14.200;2024-01-15T08:31:35;30.80;;;12.55;;
81176;SDS011;74095;48.270;14.200;2024-01-15T08:34:01;29.90;;;12.43;;
81176;SDS011;74095;48.270;14.200;2024-01-15T08:36:27;30.58;;;13.38;;
81176;SDS011;74095;48.270;14.200;2024-01-15T08:38:55;22.83;;;10.65;;
81176;SDS011;74095;48.270;14.200;2024-01-15T08:41:21;23.52;;;10.18;;
81176;SDS011;74095;48.270;14.200;2024-01-15T08:43:46;25.33;;;11.63;;
81176;SDS011;74095;48.270;14.200;2024-01-15T08:46:13;25.55;;;11.68;;
81176;SDS011;74095;48.270;14.200;2024-01-15T08:48:39;25.27;;;10.90;;
81176;SDS011;74095;48.270;14.200;2024-01-15T08:51:05;21.88;;;10.60;;
81176;SDS011;74095;48.270;14.200;2024-01-15T08:53:31;23.75;;;11.90;;
81176;SDS011;74095;48.270;14.200;2024-01-15T08:55:58;26.95;;;13.32;;
81176;SDS011;74095;48.270;14.200;2024-01-15T08:58:24;26.05;;;12.80;;
81176;SDS011;74095;48.270;14.200;2024-01-15T09:00:51;22.10;;;10.10;;
81176;SDS011;74095;48.270;14.200;2024-01-15T09:03:17;25.23;;;12.23;;
81176;SDS011;74095;48.270;14.200;2024-01-15T09:05:43;24.58;;;11.52;;
81176;SDS011;74095;48.270;14.200;2024-01-15T09:08:09;23.23;;;11.65;;
81176;SDS011;74095;48.270;14.200;2024-01-15T09:10:35;21.45;;;11.10;;
81176;SDS011;74095;48.270;14.200;2024-01-15T09:13:01;24.10;;;11.05;;
81176;SDS011;74095;48.270;14.200;2024-01-15T09:15:29;20.25;;;9.70;;
81176;SDS011;74095;48.270;14.200;2024-01-15T09:17:55;20.90;;;10.88;;
81176;SDS011;74095;48.270;14.200;2024-01-15T09:20:23;20.77;;;9.93;;
81176;SDS011;74095;48.270;14.200;2024-01-15T09:22:49;20.30;;;10.25;;
81176;SDS011;74095;48.270;14.200;2024-01-15T09:25:15;23.83;;;11.10;;
81176;SDS011;74095;48.270;14.200;2024-01-15T09:27:41;20.75;;;8.98;;
81176;SDS011;74095;48.270;14.200;2024-01-15T09:30:07;18.85;;;9.57;;
81176;SDS011;74095;48.270;14.200;2024-01-15T09:32:33;20.00;;;9.75;;
81176;SDS011;74095;48.270;14.200;2024-01-15T09:34:59;20.35;;;9.30;;
81176;SDS011;74095;48.270;14.200;2024-01-15T09:37:25;18.92;;;9.52;;
81176;SDS011;74095;48.270;14.200;2024-01-15T09:39:51;19.48;;;10.25;;
81176;SDS011;74095;48.270;14.200;2024-01-15T09:42:17;17.67;;;9.35;;
81176;SDS011;74095;48.270;14.200;2024-01-15T09:44:43;21.73;;;9.90;;
81176;SDS011;74095;48.270;14.200;2024-01-15T09:47:11;19.52;;;8.70;;
81176;SDS011;74095;48.270;14.200;2024-01-15T09:49:38;20.02;;;9.40;;
81176;SDS011;74095;48.270;14.200;2024-01-15T09:52:06;16.98;;;8.65;;
81176;SDS011;74095;48.270;14.200;2024-01-15T09:54:33;17.67;;;8.40;;
81176;SDS011;74095;48.270;14.200;2024-01-15T09:57:00;18.23;;;8.73;;
81176;SDS011;74095;48.270;14.200;2024-01-15T09:59:26;17.63;;;8.25;;
81176;SDS011;74095;48.270;14.200;2024-01-15T10:01:53;16.33;;;7.95;;
81176;SDS011;74095;48.270;14.200;2024-01-15T10:04:21;17.73;;;8.23;;
81176;SDS011;74095;48.270;14.200;2024-01-15T10:06:47;17.70;;;7.85;;
81176;SDS011;74095;48.270;14.200;2024-01-15T10:09:16;16.25;;;7.93;;
81176;SDS011;74095;48.270;14.200;2024-01-15T10:11:43;17.02;;;8.07;;
81176;SDS011;74095;48.270;14.200;2024-01-15T10:14:12;16.48;;;8.00;;
81176;SDS011;74095;48.270;14.200;2024-01-15T10:16:39;16.10;;;8.38;;
81176;SDS011;74095;48.270;14.200;2024-01-15T10:19:05;16.00;;;8.27;;
81176;SDS011;74095;48.270;14.200;2024-01-15T10:21:32;15.23;;;8.30;;
81176;SDS011;74095;48.270;14.200;2024-01-15T10:24:01;14.18;;;7.45;;
81176;SDS011;74095;48.270;14.200;2024-01-15T10:26:29;15.68;;;7.93;;
81176;SDS011;74095;48.270;14.200;2024-01-15T10:28:56;13.32;;;6.90;;
81176;SDS011;74095;48.270;14.200;2024-01-15T10:31:24;13.38;;;6.03;;
81176;SDS011;74095;48.270;14.200;2024-01-15T10:33:51;12.55;;;6.75;;
81176;SDS011;74095;48.270;14.200;2024-01-15T10:36:17;10.80;;;6.18;;
81176;SDS011;74095;48.270;14.200;2024-01-15T10:38:44;12.13;;;5.88;;
81176;SDS011;74095;48.270;14.200;2024-01-15T10:41:10;12.23;;;6.30;;
81176;SDS011;74095;48.270;14.200;2024-01-15T10:43:36;9.45;;;5.80;;
81176;SDS011;74095;48.270;14.200;2024-01-15T10:46:02;10.60;;;5.70;;
81176;SDS011;74095;48.270;14.200;2024-01-15T10:48:28;10.82;;;5.40;;
81176;SDS011;74095;48.270;14.200;2024-01-15T10:50:56;7.85;;;4.72;;
81176;SDS011;74095;48.270;14.200;2024-01-15T10:53:24;7.80;;;4.25;;
81176;SDS011;74095;48.270;14.200;2024-01-15T10:55:54;7.63;;;4.40;;
81176;SDS011;74095;48.270;14.200;2024-01-15T10:58:21;8.95;;;4.10;;
81176;SDS011;74095;48.270;14.200;2024-01-15T11:00:48;7.22;;;3.65;;
81176;SDS011;74095;48.270;14.200;2024-01-15T11:03:14;6.25;;;3.70;;
81176;SDS011;74095;48.270;14.200;2024-01-15T11:05:42;5.70;;;3.40;;
81176;SDS011;74095;48.270;14.200;2024-01-15T11:08:09;5.78;;;3.20;;
81176;SDS011;74095;48.270;14.200;2024-01-15T11:13:09;7.05;;;3.85;;
81176;SDS011;74095;48.270;14.200;2024-01-15T11:18:35;6.72;;;3.20;;
81176;SDS011;74095;48.270;14.200;2024-01-15T11:29:10;6.82;;;4.18;;
81176;SDS011;74095;48.270;14.200;2024-01-15T11:31:56;6.82;;;3.80;;
81176;SDS011;74095;48.270;14.200;2024-01-15T11:37:16;7.25;;;3.22;;
81176;SDS011;74095;48.270;14.200;2024-01-15T11:39:42;5.38;;;3.25;;
81176;SDS011;74095;48.270;14.200;2024-01-15T11:42:09;5.43;;;3.20;;
81176;SDS011;74095;48.270;14.200;2024-01-15T11:44:37;5.07;;;3.05;;
81176;SDS011;74095;48.270;14.200;2024-01-15T11:47:05;8.05;;;4.00;;
81176;SDS011;74095;48.270;14.200;2024-01-15T11:52:26;6.43;;;3.20;;
81176;SDS011;74095;48.270;14.200;2024-01-15T11:57:55;6.93;;;3.60;;
81176;SDS011;74095;48.270;14.200;2024-01-15T12:00:23;6.07;;;2.92;;
81176;SDS011;74095;48.270;14.200;2024-01-15T12:02:50;6.40;;;3.28;;
81176;SDS011;74095;48.270;14.200;2024-01-15T12:05:17;7.10;;;3.83;;
81176;SDS011;74095;48.270;14.200;2024-01-15T12:07:45;6.13;;;3.72;;
81176;SDS011;74095;48.270;14.200;2024-01-15T12:10:16;7.95;;;3.75;;
81176;SDS011;74095;48.270;14.200;2024-01-15T12:15:35;6.13;;;3.20;;
81176;SDS011;74095;48.270;14.200;2024-01-15T12:18:02;7.57;;;3.42;;
81176;SDS011;74095;48.270;14.200;2024-01-15T12:20:28;6.57;;;3.90;;
81176;SDS011;74095;48.270;14.200;2024-01-15T12:22:55;5.65;;;2.78;;
81176;SDS011;74095;48.270;14.200;2024-01-15T12:25:21;6.25;;;3.75;;
81176;SDS011;74095;48.270;14.200;2024-01-15T12:27:48;7.15;;;3.97;;
81176;SDS011;74095;48.270;14.200;2024-01-15T12:30:15;6.18;;;3.28;;
81176;SDS011;74095;48.270;14.200;2024-01-15T12:32:41;6.53;;;3.95;;
81176;SDS011;74095;48.270;14.200;2024-01-15T12:35:08;6.25;;;3.60;;
81176;SDS011;74095;48.270;14.200;2024-01-15T12:37:36;6.63;;;3.58;;
81176;SDS011;74095;48.270;14.200;2024-01-15T12:40:03;5.68;;;3.08;;
81176;SDS011;74095;48.270;14.200;2024-01-15T12:42:32;5.30;;;3.10;;
81176;SDS011;74095;48.270;14.200;2024-01-15T12:45:02;6.22;;;3.38;;
81176;SDS011;74095;48.270;14.200;2024-01-15T12:47:31;7.40;;;3.40;;
81176;SDS011;74095;48.270;14.200;2024-01-15T12:49:58;5.80;;;3.33;;
81176;SDS011;74095;48.270;14.200;2024-01-15T12:52:28;6.28;;;3.25;;
81176;SDS011;74095;48.270;14.200;2024-01-15T12:54:54;5.10;;;2.90;;
81176;SDS011;74095;48.270;14.200;2024-01-15T12:57:20;6.63;;;3.35;;
81176;SDS011;74095;48.270;14.200;2024-01-15T12:59:46;5.85;;;3.10;;
81176;SDS011;74095;48.270;14.200;2024-01-15T13:02:13;5.57;;;3.58;;
81176;SDS011;74095;48.270;14.200;2024-01-15T13:04:39;5.75;;;3.17;;
81176;SDS011;74095;48.270;14.200;2024-01-15T13:07:06;4.85;;;2.92;;
81176;SDS011;74095;48.270;14.200;2024-01-15T13:09:32;7.35;;;3.00;;
81176;SDS011;74095;48.270;14.200;2024-01-15T13:12:00;6.05;;;2.90;;
81176;SDS011;74095;48.270;14.200;2024-01-15T13:14:27;4.35;;;2.28;;
81176;SDS011;74095;48.270;14.200;2024-01-15T13:16:54;5.13;;;3.20;;
81176;SDS011;74095;48.270;14.200;2024-01-15T13:19:21;4.43;;;2.45;;
81176;SDS011;74095;48.270;14.200;2024-01-15T13:21:48;4.93;;;2.60;;
81176;SDS011;74095;48.270;14.200;2024-01-15T13:24:15;5.20;;;2.53;;
81176;SDS011;74095;48.270;14.200;2024-01-15T13:26:41;3.60;;;2.13;;
81176;SDS011;74095;48.270;14.200;2024-01-15T13:29:07;5.43;;;2.95;;
81176;SDS011;74095;48.270;14.200;2024-01-15T13:31:33;4.20;;;2.30;;
81176;SDS011;74095;48.270;14.200;2024-01-15T13:33:59;4.65;;;2.40;;
81176;SDS011;74095;48.270;14.200;2024-01-15T13:36:25;4.90;;;2.40;;
81176;SDS011;74095;48.270;14.200;2024-01-15T13:38:52;3.63;;;2.17;;
81176;SDS011;74095;48.270;14.200;2024-01-15T13:41:22;4.45;;;2.10;;
81176;SDS011;74095;48.270;14.200;2024-01-15T13:43:53;4.10;;;2.33;;
81176;SDS011;74095;48.270;14.200;2024-01-15T13:46:20;4.28;;;2.47;;
81176;SDS011;74095;48.270;14.200;2024-01-15T13:48:49;3.22;;;2.03;;
81176;SDS011;74095;48.270;14.200;2024-01-15T13:51:15;3.60;;;2.22;;
81176;SDS011;74095;48.270;14.200;2024-01-15T13:53:41;4.25;;;2.30;;
81176;SDS011;74095;48.270;14.200;2024-01-15T13:56:07;4.68;;;2.40;;
81176;SDS011;74095;48.270;14.200;2024-01-15T13:58:35;3.75;;;2.10;;
81176;SDS011;74095;48.270;14.200;2024-01-15T14:01:01;3.50;;;1.85;;
81176;SDS011;74095;48.270;14.200;2024-01-15T14:03:29;3.67;;;1.95;;
81176;SDS011;74095;48.270;14.200;2024-01-15T14:05:55;3.40;;;2.08;;
81176;SDS011;74095;48.270;14.200;2024-01-15T14:08:21;3.55;;;1.88;;
81176;SDS011;74095;48.270;14.200;2024-01-15T14:10:47;4.75;;;2.30;;
81176;SDS011;74095;48.270;14.200;2024-01-15T14:13:13;3.03;;;2.03;;
81176;SDS011;74095;48.270;14.200;2024-01-15T14:15:39;3.85;;;2.13;;
81176;SDS011;74095;48.270;14.200;2024-01-15T14:18:05;3.78;;;2.15;;
81176;SDS011;74095;48.270;14.200;2024-01-15T14:20:34;2.78;;;1.67;;
81176;SDS011;74095;48.270;14.200;2024-01-15T14:23:00;3.67;;;1.77;;
81176;SDS011;74095;48.270;14.200;2024-01-15T14:25:26;3.63;;;1.92;;
81176;SDS011;74095;48.270;14.200;2024-01-15T14:27:52;3.10;;;1.70;;
81176;SDS011;74095;48.270;14.200;2024-01-15T14:30:18;2.92;;;1.70;;
81176;SDS011;74095;48.270;14.200;2024-01-15T14:32:44;3.13;;;1.70;;
81176;SDS011;74095;48.270;14.200;2024-01-15T14:35:10;3.80;;;2.08;;
81176;SDS011;74095;48.270;14.200;2024-01-15T14:37:37;3.63;;;2.00;;